createdAt,value
2023-07-24T16:03:16.706Z,17.20
2023-07-24T16:04:51.469Z,17.60
2023-07-24T16:06:23.547Z,15.20
2023-07-24T16:07:55.459Z,13.00
2023-07-24T16:09:27.321Z,13.20
2023-07-24T16:10:59.285Z,11.60
2023-07-24T16:12:31.170Z,16.00
2023-07-24T16:14:03.397Z,12.00
2023-07-24T16:17:33.603Z,14.40
2023-07-24T16:19:22.598Z,14.20
2023-07-24T16:20:55.760Z,14.00
2023-07-24T16:22:28.176Z,13.00
2023-07-24T16:24:00.023Z,16.20
2023-07-24T16:25:32.076Z,11.40
2023-07-24T16:27:05.062Z,16.60
2023-07-24T16:28:36.990Z,15.40
2023-07-24T16:30:10.525Z,15.00
2023-07-24T16:31:42.673Z,14.00
2023-07-24T16:34:55.017Z,14.60
2023-07-24T16:36:26.897Z,14.40
2023-07-24T16:37:58.804Z,12.60
2023-07-24T16:39:30.714Z,16.20
2023-07-24T16:41:03.825Z,10.40
2023-07-24T16:42:36.343Z,8.00
2023-07-24T16:44:14.742Z,14.40
2023-07-24T16:47:42.555Z,18.60
2023-07-24T16:49:14.914Z,14.60
2023-07-24T16:50:46.930Z,19.20
2023-07-24T16:52:18.822Z,16.60
2023-07-24T16:53:50.812Z,15.40
2023-07-24T16:55:22.637Z,19.00
2023-07-24T16:56:54.629Z,16.20
2023-07-24T16:58:26.485Z,17.00
2023-07-24T16:59:58.378Z,19.60
2023-07-24T17:01:31.540Z,17.00
2023-07-24T17:03:03.998Z,18.80
2023-07-24T17:04:35.941Z,18.40
2023-07-24T17:06:07.869Z,19.20
2023-07-24T17:07:39.711Z,18.80
2023-07-24T17:09:11.786Z,12.00
2023-07-24T17:10:45.294Z,18.40
2023-07-24T17:12:17.300Z,19.40
2023-07-24T17:13:49.259Z,17.60
2023-07-24T17:15:21.276Z,16.80
2023-07-24T17:16:53.200Z,15.60
2023-07-24T17:18:25.111Z,19.00
2023-07-24T17:19:57.108Z,18.20
2023-07-24T17:21:29.511Z,13.40
2023-07-24T17:23:01.613Z,16.00
2023-07-24T17:24:33.582Z,15.60
2023-07-24T17:26:05.521Z,13.40
2023-07-24T17:27:38.180Z,14.40
2023-07-24T17:29:10.204Z,11.60
2023-07-24T17:30:42.290Z,14.20
2023-07-24T17:32:14.425Z,17.00
2023-07-24T17:33:46.301Z,14.40
2023-07-24T17:35:18.380Z,14.80
2023-07-24T17:36:50.322Z,14.20
2023-07-24T17:38:22.222Z,14.00
2023-07-24T17:39:54.122Z,13.80
2023-07-24T17:41:26.010Z,13.40
2023-07-24T17:42:57.995Z,14.20
2023-07-24T17:44:29.950Z,11.20
2023-07-24T17:46:01.887Z,14.80
2023-07-24T17:47:34.159Z,14.00
2023-07-24T17:49:06.186Z,12.40
2023-07-24T17:50:38.189Z,15.40
2023-07-24T17:52:10.440Z,13.40
2023-07-24T17:53:42.348Z,13.60
2023-07-24T17:55:14.313Z,12.80
2023-07-24T17:56:46.279Z,14.20
2023-07-24T17:58:18.234Z,13.80
2023-07-24T17:59:50.117Z,13.80
2023-07-24T18:01:23.032Z,13.60
2023-07-24T18:02:55.210Z,5.40
2023-07-24T18:04:27.107Z,13.60
2023-07-24T18:06:00.549Z,12.00
2023-07-24T18:07:32.624Z,12.20
2023-07-24T18:09:04.574Z,12.80
2023-07-24T18:10:36.498Z,8.40
2023-07-24T18:12:08.602Z,13.00
2023-07-24T18:13:40.659Z,13.00
2023-07-24T18:15:12.656Z,12.80
2023-07-24T18:16:45.993Z,11.00
2023-07-24T18:18:17.957Z,11.80
2023-07-24T18:19:49.955Z,14.00
2023-07-24T18:21:21.868Z,13.00
2023-07-24T18:22:54.110Z,12.80
2023-07-24T18:24:26.070Z,14.40
2023-07-24T18:25:58.064Z,12.00
2023-07-24T18:27:29.994Z,12.80
2023-07-24T18:29:02.413Z,9.60
2023-07-24T18:30:34.359Z,11.80
2023-07-24T18:32:07.938Z,10.80
2023-07-24T18:33:39.938Z,10.40
2023-07-24T18:35:12.949Z,12.00
2023-07-24T18:36:44.885Z,10.00
2023-07-24T18:38:16.934Z,10.20
2023-07-24T18:39:48.855Z,12.20
2023-07-24T18:41:20.750Z,11.00
2023-07-24T18:42:52.691Z,11.20
2023-07-24T18:44:24.608Z,11.20
2023-07-24T18:45:58.438Z,13.00
2023-07-24T18:47:31.481Z,9.60
2023-07-24T18:49:03.367Z,12.00
2023-07-24T18:50:35.381Z,12.60
2023-07-24T18:52:07.549Z,12.00
2023-07-24T18:53:39.444Z,9.20
2023-07-24T18:55:11.537Z,10.00
2023-07-24T18:56:43.460Z,12.40
2023-07-24T18:58:15.445Z,12.00
2023-07-24T18:59:47.377Z,11.00
2023-07-24T19:01:19.440Z,11.00
2023-07-24T19:02:51.410Z,11.40
2023-07-24T19:04:23.410Z,11.00
2023-07-24T19:05:55.673Z,12.00
2023-07-24T19:07:27.812Z,11.00
2023-07-24T19:08:59.732Z,11.80
2023-07-24T19:10:31.668Z,11.00
2023-07-24T19:12:03.773Z,10.40
2023-07-24T19:13:37.165Z,10.60
2023-07-24T19:15:09.741Z,11.40
2023-07-24T19:16:41.685Z,12.20
2023-07-24T19:18:13.615Z,10.60
2023-07-24T19:19:45.717Z,12.40
2023-07-24T19:21:17.614Z,11.20
2023-07-24T19:22:49.551Z,13.80
2023-07-24T19:24:21.443Z,13.00
2023-07-24T19:25:53.437Z,10.60
2023-07-24T19:27:25.346Z,11.60
2023-07-24T19:28:57.230Z,11.60
2023-07-24T19:30:29.126Z,12.20
2023-07-24T19:32:01.122Z,12.40
2023-07-24T19:33:33.402Z,11.40
2023-07-24T19:35:05.706Z,12.60
2023-07-24T19:36:37.555Z,12.60
2023-07-24T19:38:12.037Z,11.20
2023-07-24T19:39:43.964Z,12.80
2023-07-24T19:41:15.916Z,12.00
2023-07-24T19:42:47.946Z,10.40
2023-07-24T19:44:19.917Z,13.00
2023-07-24T19:45:51.872Z,13.40
2023-07-24T19:47:23.925Z,13.80
2023-07-24T19:48:55.869Z,11.00
2023-07-24T19:50:27.859Z,14.20
2023-07-24T19:52:00.359Z,12.40
2023-07-24T19:53:32.250Z,12.00
2023-07-24T19:55:04.496Z,12.00
2023-07-24T19:56:36.543Z,12.20
2023-07-24T19:58:18.496Z,12.40
2023-07-24T19:59:58.868Z,9.80
2023-07-24T20:01:31.140Z,13.20
2023-07-24T20:03:03.431Z,13.00
2023-07-24T20:04:35.359Z,15.60
2023-07-24T20:06:08.659Z,14.00
2023-07-24T20:07:40.649Z,15.00
2023-07-24T20:09:12.645Z,12.20
2023-07-24T20:10:45.011Z,13.60
2023-07-24T20:12:18.624Z,14.20
2023-07-24T20:13:50.527Z,13.80
2023-07-24T20:15:22.582Z,11.80
2023-07-24T20:16:54.653Z,15.00
2023-07-24T20:18:26.822Z,13.20
2023-07-24T20:19:59.020Z,12.00
2023-07-24T20:21:31.320Z,13.80
2023-07-24T20:23:03.606Z,11.20
2023-07-24T20:24:35.595Z,14.00
2023-07-24T20:26:07.508Z,13.20
2023-07-24T20:27:39.494Z,15.00
2023-07-24T20:29:11.302Z,11.00
2023-07-24T20:30:43.183Z,19.00
2023-07-24T20:32:15.243Z,12.80
2023-07-24T20:33:47.227Z,19.20
2023-07-24T20:35:19.058Z,20.00
2023-07-24T20:36:50.935Z,16.80
2023-07-24T20:38:23.956Z,10.40
2023-07-24T20:39:55.947Z,17.80
2023-07-24T20:41:27.810Z,21.60
2023-07-24T20:42:59.964Z,22.40
2023-07-24T20:44:31.948Z,21.20
2023-07-24T20:46:11.987Z,23.40
2023-07-24T20:47:43.897Z,24.20
2023-07-24T20:49:15.864Z,29.20
2023-07-24T20:50:47.805Z,24.60
2023-07-24T20:52:21.653Z,27.40
2023-07-24T20:53:53.587Z,27.20
2023-07-24T20:55:25.622Z,25.20
2023-07-24T20:56:57.474Z,23.20
2023-07-24T20:58:29.540Z,21.20
2023-07-24T21:00:01.399Z,23.40
2023-07-24T21:01:33.528Z,23.00
2023-07-24T21:03:05.795Z,24.00
2023-07-24T21:04:37.934Z,20.80
2023-07-24T21:06:09.885Z,23.00
2023-07-24T21:07:42.666Z,24.00
2023-07-24T21:09:14.715Z,22.20
2023-07-24T21:10:46.756Z,22.00
2023-07-24T21:12:18.840Z,22.20
2023-07-24T21:13:50.763Z,20.00
2023-07-24T21:15:22.720Z,22.00
2023-07-24T21:16:54.758Z,20.60
2023-07-24T21:18:26.670Z,17.20
2023-07-24T21:19:58.645Z,15.40
2023-07-24T21:21:30.797Z,14.40
2023-07-24T21:23:03.024Z,17.20
2023-07-24T21:24:34.864Z,15.60
2023-07-24T21:26:06.847Z,17.40
2023-07-24T21:27:38.695Z,12.40
2023-07-24T21:29:11.034Z,13.40
2023-07-24T21:30:42.914Z,14.00
2023-07-24T21:32:14.846Z,17.00
2023-07-24T21:33:47.037Z,12.20
2023-07-24T21:35:19.394Z,13.80
2023-07-24T21:36:51.305Z,17.80
2023-07-24T21:38:23.275Z,13.00
2023-07-24T21:39:55.133Z,14.20
2023-07-24T21:41:29.764Z,12.40
2023-07-24T21:43:02.733Z,13.40
2023-07-24T21:44:34.622Z,15.00
2023-07-24T21:46:06.541Z,14.80
2023-07-24T21:47:38.532Z,18.00
2023-07-24T21:49:10.501Z,12.60
2023-07-24T21:50:42.683Z,15.40
2023-07-24T21:52:14.625Z,16.00
2023-07-24T21:53:46.583Z,17.60
2023-07-24T21:55:18.618Z,16.60
2023-07-24T21:56:50.530Z,21.80
2023-07-24T21:58:22.525Z,17.00
2023-07-24T21:59:54.436Z,20.60
2023-07-24T22:01:26.396Z,20.60
2023-07-24T22:02:58.443Z,20.80
2023-07-24T22:04:30.708Z,19.40
2023-07-24T22:06:04.561Z,19.40
2023-07-24T22:07:38.956Z,18.00
2023-07-24T22:09:10.865Z,22.80
2023-07-24T22:10:42.759Z,21.00
2023-07-24T22:12:14.695Z,20.60
2023-07-24T22:13:47.370Z,21.00
2023-07-24T22:15:19.247Z,19.00
2023-07-24T22:16:51.234Z,21.00
2023-07-24T22:18:23.283Z,19.80
2023-07-24T22:19:56.383Z,15.20
2023-07-24T22:21:28.546Z,19.00
2023-07-24T22:23:00.653Z,12.60
2023-07-24T22:24:34.813Z,15.80
2023-07-24T22:26:06.727Z,14.00
2023-07-24T22:27:39.057Z,14.20
2023-07-24T22:29:10.971Z,8.20
2023-07-24T22:30:42.983Z,8.80
2023-07-24T22:32:14.837Z,8.00
2023-07-24T22:33:46.683Z,9.00
